Aérodrome :
LOGIN :

S'inscrire | Disclaimer

   EN    FR    IT 

 










Légende :    VFR   VFR Marginal   IFR   IFR Intensif   IFR Très Intensif
Visi : 
Plafond : 
>= 8 km
>= 3000ft
5 à 8 km
1000 à 3000 ft
1500m à 5 km
500 à 1000 ft
800 à 1500m
200 à 500 ft
< 800m
< 200 ft
Symboles :   Orages  Brouillard  Fortes neiges  Fortes précipitations  Vent > 20 kt
SIGMETs :   Divers  Orages  Givrage  Turbulence  Onde Orograph.  Cendres Volcan.







- Altitude de l'aérodrome : 821 ft
- Code IATA : LYS
- Voir les cartes d'approche


LFLL - Lyon St Exupéry / Satolas

DERNIER METAR :
  • 270300Z 14008KT 9999 -RA NSC Q1017 NOSIG

METARs EXPIRÉS :
  • 270230Z 14008KT 9999 -RA NSC Q1017 NOSIG
  • 270200Z 14008KT 9999 FEW120CB SCT120 BKN200 Q1017 NOSIG
  • 270130Z 14008KT 9999 VCTS FEW066CB SCT120 BKN200 21/14 Q1017 NOSIG
  • 270100Z 16006KT 9999 TS SCT066CB BKN130 21/15 Q1017 NOSIG
  • 270030Z 16007KT 9999 -TSRA BKN066CB BKN180 22/14 Q1017 NOSIG

TAF AMD TAF LFLL
Valide du 27 à 00h jusqu'au 28 à 06h UTC


270040Z 2700/2806 VRB03KT CAVOK
TEMPO 2700/2703 4000 TSRA BKN055CB
PROB40
TEMPO 2700/2715 -SHRA BKN120CB
TEMPO 2715/2806 -SHRA BKN120CB
PROB40
TEMPO 2715/2806 VRB15KT -TSRA BKN080CB
Pas de NOTAMs connus pour ce terrain.
1 SIGMET publié pour la FIR Marseille (LFMM) :
 
Orages noyés dans la masse
LFMM SIGMET 1 VALID 270130/270400 LFPW
LFMM MARSEILLE FIR/UIR EMBD TS OBS WI N4530 E00430 - N4615 E00430 - N4545 E00615 - N4530 E00430 TOP FL330 MOV N 20KT NC=



MET'MAP, la Météo Aéronautique d'un coup d'oeil ! - Copyright ORBIFLY Décembre 2007 - Disclaimer

ORBIFLY MET'MAP TEAM :

Programmation & Développement : Alexandra Zaïnal
Conception & Développement : Baudouin d'Aumeries
Co-Programmation & Développement : Marc-Olivier Méhu
Soutien technique & logistique : Manuel Goepfert

Contact : metmap@orbifly.com




SOURCES & CREDITS :

   NOAA